Vernon, Texas
Current Conditions -  °F | °C
As of 5:56 PM on Thursday 27 Nov 2014 (Local Time) from KF05 Reporting Station
Clear Clear  
Wind Chill: 42°   Ceiling: Unl
Heat Index: 46°   Visibility: 10mi
Dew Point: 30°   Wind: 8mph
Humidity: 53%   Direction: 170°S
Pressure: 30.35"   Gusts: NA
Location:  34.15°N, 99.28°W
Report Text: KF05 272356Z AUTO 17007KT 10SM CLR 08/M01 A3035 RMK AO2
Loading
Personal Weather Stations






























Interactive Weather Map New forecast layout! Learn more

10-Day Weather Forecast

Advertisements
Track Severe Weather on mobile